Time;durP1;ratioP1;P1;durP2;ratioP2;P2;SDS_P1;SDS_P2;PMS_P1;PMS_P2;Temp;Humidity;BMP_temperature;BMP_pressure;BME280_temperature;BME280_humidity;BME280_pressure;Samples;Min_cycle;Max_cycle;Signal;HPM_P1;HPM_P2
2022/04/21 00:00:08;;;;;;;7.20;5.88;;;;;;;10.19;73.94;101311.38;5092117;28;20127;-82
2022/04/21 00:02:34;;;;;;;7.60;5.78;;;;;;;10.32;73.97;101338.28;5090810;28;20232;-82
2022/04/21 00:05:00;;;;;;;6.50;5.55;;;;;;;10.32;73.72;101336.56;5092170;28;20032;-82
2022/04/21 00:07:25;;;;;;;6.72;5.78;;;;;;;10.27;73.83;101345.81;5091994;28;20420;-82
2022/04/21 00:09:51;;;;;;;7.55;5.70;;;;;;;10.36;74.23;101366.41;5091857;28;20051;-82
2022/04/21 00:12:17;;;;;;;6.07;5.47;;;;;;;10.36;73.53;101364.69;5090595;28;20490;-82
2022/04/21 00:14:43;;;;;;;7.00;5.70;;;;;;;10.05;73.49;101325.22;5091950;28;20508;-82
2022/04/21 00:17:09;;;;;;;6.82;5.82;;;;;;;10.06;73.89;101342.69;5074330;28;20397;-82
2022/04/21 00:19:35;;;;;;;8.15;5.63;;;;;;;10.12;74.17;101358.75;5092213;28;20507;-82
2022/04/21 00:24:46;;;;;;;7.32;5.55;;;;;;;10.24;73.91;101381.22;5094020;28;20304;-82
2022/04/21 00:27:12;;;;;;;6.38;5.57;;;;;;;10.23;73.82;101369.91;5091134;28;20024;-82
2022/04/21 00:29:38;;;;;;;5.72;5.13;;;;;;;10.39;74.09;101393.63;5089894;28;20500;-82
2022/04/21 00:32:04;;;;;;;6.15;5.40;;;;;;;10.36;73.70;101387.28;5090142;28;20119;-82
2022/04/21 00:34:32;;;;;;;6.20;5.55;;;;;;;10.16;73.96;101352.03;5091295;28;20075;-82
2022/04/21 00:36:57;;;;;;;7.22;5.65;;;;;;;10.35;73.69;101385.47;5090444;28;20082;-82
2022/04/21 00:39:23;;;;;;;6.70;5.40;;;;;;;10.19;73.54;101360.06;5090261;28;20036;-82
2022/04/21 00:41:48;;;;;;;6.63;5.47;;;;;;;10.26;73.78;101375.28;5090384;28;20024;-82
2022/04/21 00:44:14;;;;;;;7.20;5.63;;;;;;;10.41;73.34;101398.03;5089908;28;20027;-82
2022/04/21 00:46:40;;;;;;;6.10;5.30;;;;;;;10.28;73.47;101394.56;5089933;28;20565;-82
2022/04/21 00:49:06;;;;;;;5.68;4.80;;;;;;;10.33;73.73;101402.78;5090141;28;20028;-82
2022/04/21 00:51:32;;;;;;;6.93;5.35;;;;;;;10.29;73.76;101406.88;5091029;28;20059;-82
2022/04/21 00:53:59;;;;;;;5.45;4.88;;;;;;;10.17;73.70;101387.75;5090955;28;20024;-82
2022/04/21 00:56:25;;;;;;;5.95;5.15;;;;;;;10.29;73.58;101404.25;5090121;28;20043;-82
2022/04/21 00:58:51;;;;;;;5.95;4.78;;;;;;;10.32;73.58;101420.13;5089429;28;20433;-82
2022/04/21 01:04:02;;;;;;;5.80;5.00;;;;;;;10.09;73.52;101397.69;5090280;28;20074;-81
2022/04/21 01:06:28;;;;;;;6.40;5.07;;;;;;;10.24;73.11;101404.72;5089478;28;20501;-82
2022/04/21 01:08:54;;;;;;;6.20;5.10;;;;;;;10.18;73.45;101394.78;5091322;28;20024;-82
2022/04/21 01:11:21;;;;;;;6.18;5.05;;;;;;;10.25;73.53;101411.75;5091659;28;20024;-82
2022/04/21 01:13:47;;;;;;;5.78;5.05;;;;;;;10.26;73.52;101403.13;5075406;28;20028;-82
2022/04/21 01:16:13;;;;;;;;;;;;;;;10.34;73.14;101409.78;5083095;28;20024;-82
2022/04/21 01:18:40;;;;;;;5.63;4.50;;;;;;;10.29;73.41;101398.13;5089833;28;20342;-81
2022/04/21 01:21:06;;;;;;;5.88;4.90;;;;;;;10.22;73.42;101386.34;5090844;28;20442;-82
2022/04/21 01:23:32;;;;;;;6.10;4.72;;;;;;;10.21;73.25;101383.66;5090119;28;20078;-81
2022/04/21 01:25:59;;;;;;;5.70;4.75;;;;;;;10.17;73.94;101390.38;5094104;28;20132;-81
2022/04/21 01:28:25;;;;;;;5.68;5.07;;;;;;;10.18;73.66;101376.50;5094670;28;20039;-81
2022/04/21 01:30:55;;;;;;;5.60;5.00;;;;;;;9.98;73.78;101331.75;5093680;28;20108;-81
2022/04/21 01:33:20;;;;;;;5.45;4.65;;;;;;;10.17;73.80;101365.16;5091056;28;20032;-82
2022/04/21 01:35:49;;;;;;;5.43;4.47;;;;;;;10.15;73.54;101364.16;5069549;28;20024;-82
2022/04/21 01:41:14;;;;;;;5.32;4.70;;;;;;;10.23;73.55;101385.56;5090983;28;20148;-81
2022/04/21 01:43:41;;;;;;;5.43;4.70;;;;;;;10.25;73.34;101394.38;5090678;28;20024;-82
2022/04/21 01:46:09;;;;;;;5.18;4.43;;;;;;;10.14;73.31;101396.31;5089189;28;20032;-82
2022/04/21 01:48:35;;;;;;;4.82;4.32;;;;;;;10.20;73.50;101403.59;5069823;28;20514;-82
2022/04/21 01:51:02;;;;;;;5.47;4.43;;;;;;;10.25;73.18;101403.94;5072893;28;20032;-82
2022/04/21 01:53:27;;;;;;;5.43;4.53;;;;;;;10.27;72.93;101398.00;5089307;28;20039;-82
2022/04/21 01:55:53;;;;;;;4.97;4.18;;;;;;;10.06;73.15;101363.56;5089466;28;20028;-82
2022/04/21 01:58:18;;;;;;;5.50;4.78;;;;;;;10.09;72.75;101365.47;5089116;28;20044;-82
2022/04/21 02:00:44;;;;;;;4.82;4.30;;;;;;;10.08;73.05;101369.81;5090690;28;20508;-82
2022/04/21 02:03:10;;;;;;;5.63;4.80;;;;;;;10.20;73.39;101395.78;5090644;28;20035;-82
2022/04/21 02:05:35;;;;;;;7.20;4.77;;;;;;;10.25;72.97;101403.94;5090481;28;20067;-82
2022/04/21 02:08:02;;;;;;;5.63;4.80;;;;;;;10.13;72.96;101391.88;5090821;28;20289;-83
2022/04/21 02:10:28;;;;;;;5.93;4.65;;;;;;;9.89;72.97;101356.34;5090724;28;20036;-82
2022/04/21 02:12:53;;;;;;;5.63;5.03;;;;;;;9.78;73.18;101335.69;5089083;28;20550;-82
2022/04/21 02:15:19;;;;;;;6.00;4.75;;;;;;;10.17;73.27;101422.59;5090497;28;20112;-81
2022/04/21 02:17:45;;;;;;;4.97;4.47;;;;;;;10.24;73.10;101431.72;5090744;28;20065;-81
2022/04/21 02:20:15;;;;;;;5.22;4.38;;;;;;;10.17;73.23;101434.75;5093833;28;20069;-82
2022/04/21 02:22:41;;;;;;;5.53;4.85;;;;;;;10.20;73.04;101455.81;5093097;28;20030;-81
2022/04/21 02:25:08;;;;;;;;;;;;;;;10.22;72.94;101467.25;5093396;28;20032;-81
2022/04/21 02:27:36;;;;;;;5.25;4.10;;;;;;;10.19;73.17;101470.56;5094125;28;20019;-81
2022/04/21 02:30:06;;;;;;;4.82;4.32;;;;;;;10.13;72.82;101472.78;5092585;28;20119;-82
2022/04/21 02:32:31;;;;;;;5.05;4.50;;;;;;;10.02;73.16;101452.00;5094101;28;20039;-81
2022/04/21 02:34:57;;;;;;;5.82;4.90;;;;;;;10.09;72.88;101457.72;5094065;28;20032;-82
2022/04/21 02:37:23;;;;;;;8.18;4.78;;;;;;;9.99;72.84;101443.16;5092665;28;20486;-81
2022/04/21 02:39:52;;;;;;;4.75;3.97;;;;;;;10.15;73.26;101471.16;5093963;28;20032;-82
2022/04/21 02:42:19;;;;;;;4.72;4.22;;;;;;;10.19;72.86;101465.34;5092478;28;20125;-82
2022/04/21 02:44:46;;;;;;;4.70;4.15;;;;;;;10.17;72.81;101466.97;5092801;28;20020;-82
2022/04/21 02:47:11;;;;;;;4.80;4.30;;;;;;;10.03;73.33;101440.75;5092463;28;20028;-82
2022/04/21 02:49:38;;;;;;;5.10;4.60;;;;;;;10.15;72.76;101473.78;5092876;28;20036;-81
2022/04/21 02:52:09;;;;;;;4.80;4.15;;;;;;;10.16;72.69;101478.22;5092215;28;20025;-81
2022/04/21 02:57:20;;;;;;;4.68;4.18;;;;;;;10.19;72.70;101482.72;5092087;28;20505;-81
2022/04/21 02:59:46;;;;;;;5.63;4.50;;;;;;;10.11;72.88;101476.09;5091024;28;20048;-81
2022/04/21 03:02:12;;;;;;;4.35;3.95;;;;;;;10.01;72.68;101460.59;5092921;28;20436;-81
2022/04/21 03:04:38;;;;;;;5.25;4.40;;;;;;;10.09;72.68;101485.50;5093316;28;20076;-81
2022/04/21 03:07:04;;;;;;;4.47;4.05;;;;;;;10.09;72.78;101478.59;5093265;28;20040;-81
2022/04/21 03:09:32;;;;;;;4.65;4.15;;;;;;;10.11;72.71;101489.13;5092070;28;20020;-80
2022/04/21 03:12:04;;;;;;;5.05;4.47;;;;;;;10.06;73.17;101482.72;5091980;28;20055;-81
2022/04/21 03:14:30;;;;;;;5.30;4.50;;;;;;;10.11;73.17;101484.81;5092229;28;20035;-81
2022/04/21 03:16:56;;;;;;;4.45;3.78;;;;;;;10.09;72.85;101478.59;5093275;28;20032;-80
2022/04/21 03:19:22;;;;;;;5.05;4.20;;;;;;;10.14;72.75;101490.25;5091907;28;20043;-79
2022/04/21 03:24:32;;;;;;;4.47;4.07;;;;;;;10.08;72.86;101487.22;5081867;28;20606;-80
2022/04/21 03:26:58;;;;;;;4.82;4.30;;;;;;;10.09;72.54;101478.59;5091292;28;20020;-80
2022/04/21 03:29:24;;;;;;;5.10;4.13;;;;;;;10.15;72.94;101493.75;5090373;28;20043;-81
2022/04/21 03:31:50;;;;;;;4.68;4.10;;;;;;;10.09;73.07;101482.91;5085280;28;20579;-80
2022/04/21 03:34:19;;;;;;;4.43;4.00;;;;;;;10.02;72.64;101472.88;5079704;28;20413;-80
2022/04/21 03:36:50;;;;;;;4.10;3.70;;;;;;;10.06;72.67;101481.00;5071694;28;20063;-80
2022/04/21 03:39:19;;;;;;;4.70;4.10;;;;;;;10.04;73.09;101477.38;5074432;28;20044;-79
2022/04/21 03:41:45;;;;;;;4.57;3.92;;;;;;;10.10;72.61;101480.41;5087754;28;20035;-80
2022/04/21 03:44:11;;;;;;;4.40;4.00;;;;;;;10.07;72.80;101481.91;5091159;28;20024;-80
2022/04/21 03:46:38;;;;;;;5.22;4.30;;;;;;;10.05;72.89;101481.78;5092495;28;20036;-80
2022/04/21 03:49:07;;;;;;;4.40;3.95;;;;;;;10.06;72.97;101474.88;5087716;28;20058;-79
2022/04/21 03:51:33;;;;;;;4.55;4.10;;;;;;;9.99;72.82;101469.25;5071668;28;20056;-79
2022/04/21 03:53:59;;;;;;;5.20;4.28;;;;;;;10.02;72.87;101479.00;5070566;28;20436;-80
2022/04/21 03:56:26;;;;;;;4.55;3.72;;;;;;;9.99;73.12;101471.88;5072922;28;20025;-80
2022/04/21 03:58:52;;;;;;;4.78;4.05;;;;;;;10.08;72.95;101478.50;5071593;28;20097;-80
2022/04/21 04:01:18;;;;;;;5.15;4.53;;;;;;;10.02;72.83;101472.88;5071554;28;20020;-80
2022/04/21 04:03:44;;;;;;;4.82;4.10;;;;;;;10.04;72.82;101460.84;5070515;28;20558;-80
2022/04/21 04:11:39;;;;;;;4.88;4.13;;;;;;;9.99;72.61;101460.53;5071348;28;20089;-81
2022/04/21 04:14:07;;;;;;;4.70;4.10;;;;;;;9.93;73.37;101470.53;5070259;28;20028;-81
2022/04/21 04:16:37;;;;;;;4.90;4.28;;;;;;;9.98;73.02;101477.88;5073571;28;20033;-80
2022/04/21 04:19:05;;;;;;;4.30;3.90;;;;;;;9.96;73.02;101476.84;5075802;28;20382;-81
2022/04/21 04:21:39;;;;;;;4.35;3.95;;;;;;;9.89;73.38;101464.22;5090751;28;20550;-81
2022/04/21 04:24:05;;;;;;;5.00;4.13;;;;;;;9.94;73.44;101470.63;5092010;28;20020;-81
2022/04/21 04:26:35;;;;;;;5.10;4.40;;;;;;;10.03;72.85;101469.44;5092215;28;20028;-81
2022/04/21 04:29:02;;;;;;;5.80;4.55;;;;;;;9.98;72.72;101458.69;5090808;28;20039;-80
2022/04/21 04:31:28;;;;;;;4.78;4.28;;;;;;;10.01;72.68;101473.66;5090703;28;20028;-81
2022/04/21 04:33:54;;;;;;;5.18;4.05;;;;;;;9.90;72.83;101462.50;5090903;28;20032;-81
2022/04/21 04:36:19;;;;;;;4.73;4.30;;;;;;;9.98;72.98;101480.47;5092094;28;20124;-81
2022/04/21 04:38:47;;;;;;;5.15;4.40;;;;;;;9.95;72.97;101468.94;5090721;28;20297;-81
2022/04/21 04:43:57;;;;;;;5.15;4.55;;;;;;;9.83;73.31;101473.31;5091514;28;20043;-80
2022/04/21 04:46:38;;;;;;;5.57;4.45;;;;;;;9.78;73.55;101468.69;5086124;28;20614;-80
2022/04/21 04:49:08;;;;;;;5.47;4.28;;;;;;;9.82;73.48;101479.31;5073404;28;20033;-80
2022/04/21 04:51:37;;;;;;;5.10;4.20;;;;;;;9.94;73.21;101496.72;5076977;28;20028;-81
2022/04/21 04:54:05;;;;;;;5.38;4.28;;;;;;;9.94;72.94;101504.53;5090609;28;20051;-80
2022/04/21 04:56:30;;;;;;;4.63;4.15;;;;;;;9.98;72.71;101497.84;5091401;28;20028;-81
2022/04/21 04:58:56;;;;;;;4.63;4.13;;;;;;;9.95;72.78;101495.03;5091328;28;20063;-80
2022/04/21 05:01:43;;;;;;;;;;;;;;;9.90;73.57;101504.22;5071955;28;20562;-81
2022/04/21 05:04:14;;;;;;;5.95;4.35;;;;;;;9.93;73.10;101509.69;5091315;28;19923;-81
2022/04/21 05:06:47;;;;;;;4.68;4.03;;;;;;;9.91;72.87;101517.41;5091433;28;20058;-81
2022/04/21 05:09:14;;;;;;;4.78;4.15;;;;;;;9.98;72.94;101510.88;5090294;28;20129;-81
2022/04/21 05:11:41;;;;;;;4.90;4.38;;;;;;;9.95;72.66;101502.88;5089616;28;20032;-80
2022/04/21 05:14:07;;;;;;;5.40;4.35;;;;;;;9.95;72.76;101508.97;5090088;28;20052;-81
2022/04/21 05:16:33;;;;;;;5.40;4.45;;;;;;;9.90;72.92;101510.34;5091444;28;20048;-81
2022/04/21 05:18:59;;;;;;;5.07;4.35;;;;;;;9.96;72.80;101499.44;5090270;28;20035;-81
2022/04/21 05:21:25;;;;;;;4.88;4.38;;;;;;;10.02;72.63;101515.50;5090990;28;20032;-81
2022/04/21 05:23:59;;;;;;;5.28;4.50;;;;;;;9.97;72.33;101511.72;5091401;28;20085;-80
2022/04/21 05:26:26;;;;;;;5.28;4.38;;;;;;;9.87;72.75;101493.59;5091304;28;20516;-80
2022/04/21 05:28:56;;;;;;;4.78;4.20;;;;;;;9.95;72.79;101508.09;5090006;28;20511;-80
2022/04/21 05:31:22;;;;;;;5.95;4.35;;;;;;;9.90;72.93;101510.34;5090846;28;20044;-80
2022/04/21 05:33:48;;;;;;;5.30;4.55;;;;;;;9.95;72.71;101508.97;5089454;28;20024;-80
2022/04/21 05:36:14;;;;;;;4.55;4.00;;;;;;;9.97;72.41;101511.72;5091120;28;20034;-80
2022/04/21 05:38:40;;;;;;;5.82;4.88;;;;;;;9.99;72.36;101517.94;5091456;28;20040;-80
2022/04/21 05:41:06;;;;;;;5.10;4.38;;;;;;;9.82;72.59;101497.59;5089787;28;20032;-80
2022/04/21 05:43:32;;;;;;;;;;;;;;;9.88;72.62;101527.59;5091508;28;20032;-80
2022/04/21 05:45:58;;;;;;;5.00;4.35;;;;;;;9.83;72.98;101515.97;5091103;28;20290;-80
2022/04/21 05:48:24;;;;;;;6.22;4.70;;;;;;;9.93;72.67;101526.22;5076615;28;20025;-80
2022/04/21 05:50:51;;;;;;;5.03;4.30;;;;;;;10.02;72.30;101532.88;5070028;28;20040;-80
2022/04/21 05:53:24;;;;;;;5.35;4.57;;;;;;;9.97;72.30;101535.19;5071061;28;20028;-80
2022/04/21 05:55:51;;;;;;;5.82;4.63;;;;;;;9.76;72.93;101527.69;5073955;28;20024;-80
2022/04/21 05:58:17;;;;;;;5.20;4.45;;;;;;;9.71;73.25;101523.81;5078681;28;20040;-81
2022/04/21 06:00:43;;;;;;;6.28;4.32;;;;;;;9.65;73.50;101517.28;5093764;28;20039;-81
2022/04/21 06:03:11;;;;;;;5.32;4.60;;;;;;;9.73;73.40;101529.16;5094846;28;20020;-82
2022/04/21 06:05:37;;;;;;;5.38;4.70;;;;;;;9.64;73.87;101532.03;5074810;28;20107;-82
2022/04/21 06:08:03;;;;;;;;;;;;;;;9.67;73.72;101533.94;5074770;28;20036;-81
2022/04/21 06:10:28;;;;;;;5.22;4.40;;;;;;;9.62;74.12;101527.50;5074466;28;19969;-81
2022/04/21 06:12:55;;;;;;;5.13;4.22;;;;;;;9.45;74.20;101514.19;5072946;28;20017;-81
2022/04/21 06:15:20;;;;;;;5.65;4.60;;;;;;;9.61;74.01;101543.94;5074286;28;20461;-82
2022/04/21 06:17:46;;;;;;;4.93;4.28;;;;;;;9.63;73.89;101545.88;5074267;28;20090;-82
2022/04/21 06:20:12;;;;;;;5.15;4.45;;;;;;;9.53;74.40;101531.28;5074078;28;20100;-82
2022/04/21 06:22:37;;;;;;;5.03;4.30;;;;;;;9.58;74.10;101542.94;5074209;28;20031;-81
2022/04/21 06:25:03;;;;;;;5.50;4.35;;;;;;;9.62;74.20;101551.88;5072695;28;20039;-82
2022/04/21 06:27:29;;;;;;;5.03;4.47;;;;;;;9.55;74.51;101544.44;5074026;28;20024;-82
2022/04/21 06:29:54;;;;;;;5.73;4.53;;;;;;;9.36;74.45;101508.34;5074210;28;20029;-82
2022/04/21 06:32:20;;;;;;;5.18;4.55;;;;;;;9.62;74.07;101546.66;5073964;28;20776;-82
2022/04/21 06:34:46;;;;;;;4.85;4.35;;;;;;;9.52;74.36;101524.25;5073998;28;20468;-84
2022/04/21 06:37:11;;;;;;;4.80;4.10;;;;;;;9.58;74.11;101547.25;5073890;28;20060;-83
2022/04/21 06:39:37;;;;;;;4.93;4.43;;;;;;;9.55;74.13;101550.56;5073622;28;20636;-84
2022/04/21 06:42:03;;;;;;;5.05;4.30;;;;;;;9.47;74.03;101530.84;5073734;28;20036;-84
2022/04/21 06:49:57;;;;;;;5.10;4.50;;;;;;;9.65;74.63;101548.59;5073789;28;20161;-84
2022/04/21 06:52:22;;;;;;;6.13;4.55;;;;;;;9.60;74.71;101532.63;5071748;28;20046;-85
2022/04/21 06:54:48;;;;;;;5.10;4.30;;;;;;;9.71;74.33;101547.28;5072407;28;20028;-84
2022/04/21 06:57:14;;;;;;;6.73;4.40;;;;;;;9.58;74.67;101519.47;5072355;28;20032;-83
2022/04/21 06:59:39;;;;;;;5.22;4.40;;;;;;;9.62;74.34;101530.13;5086201;28;20807;-83
2022/04/21 07:02:06;;;;;;;5.03;4.22;;;;;;;9.79;74.16;101548.75;5092086;28;20027;-83
2022/04/21 07:04:31;;;;;;;5.10;4.28;;;;;;;9.70;74.31;101536.78;5091415;28;20052;-84
2022/04/21 07:06:57;;;;;;;6.45;4.35;;;;;;;9.64;74.06;101526.81;5092665;28;20048;-83
2022/04/21 07:09:23;;;;;;;4.80;4.20;;;;;;;9.81;73.97;101554.06;5092453;28;20093;-84
2022/04/21 07:11:48;;;;;;;4.63;4.03;;;;;;;9.76;74.13;101527.69;5091359;28;20028;-83
2022/04/21 07:14:14;;;;;;;4.60;4.10;;;;;;;9.79;74.30;101526.97;5092632;28;20148;-84
2022/04/21 07:16:40;;;;;;;7.10;4.32;;;;;;;9.65;74.06;101506.84;5075110;28;20489;-84
2022/04/21 07:19:05;;;;;;;4.65;4.05;;;;;;;9.75;74.22;101523.25;5093416;28;20051;-84
2022/04/21 07:21:31;;;;;;;5.18;4.00;;;;;;;9.73;74.24;101505.69;5092415;28;20540;-84
2022/04/21 07:23:57;;;;;;;7.55;4.57;;;;;;;9.93;74.28;101548.81;5093543;28;20028;-84
2022/04/21 07:26:22;;;;;;;6.97;4.30;;;;;;;9.89;74.08;101532.03;5093603;28;20031;-84
2022/04/21 07:28:48;;;;;;;5.70;4.32;;;;;;;9.87;74.01;101517.97;5093510;28;20032;-84
2022/04/21 07:31:14;;;;;;;7.70;3.95;;;;;;;9.86;73.92;101504.81;5093610;28;20097;-84
2022/04/21 07:33:39;;;;;;;5.78;4.35;;;;;;;9.97;74.52;101524.75;5092233;28;20081;-83
2022/04/21 07:36:05;;;;;;;8.75;4.45;;;;;;;10.06;73.85;101538.41;5092553;28;20031;-83
2022/04/21 07:38:31;;;;;;;6.60;4.10;;;;;;;10.04;73.91;101544.34;5093569;28;20024;-84
2022/04/21 07:40:57;;;;;;;6.95;4.57;;;;;;;9.97;74.33;101516.91;5093211;28;20024;-83
2022/04/21 07:43:23;;;;;;;6.45;4.53;;;;;;;10.09;74.48;101537.72;5092014;28;20026;-84
2022/04/21 07:45:52;;;;;;;6.47;4.47;;;;;;;10.13;74.26;101532.78;5092955;28;20020;-83
2022/04/21 07:48:17;;;;;;;6.60;4.40;;;;;;;10.04;74.17;101519.13;5091811;28;20028;-84
2022/04/21 07:50:43;;;;;;;10.73;5.30;;;;;;;9.99;74.73;101512.72;5093027;28;20409;-84
2022/04/21 07:53:15;;;;;;;9.52;5.00;;;;;;;10.07;74.38;101526.25;5091667;28;20036;-83
2022/04/21 07:55:48;;;;;;;11.25;4.63;;;;;;;10.23;74.66;101551.72;5091760;28;20055;-84
2022/04/21 07:58:14;;;;;;;8.75;4.88;;;;;;;10.20;75.14;101549.78;5091278;28;20048;-83
2022/04/21 08:00:40;;;;;;;7.35;5.10;;;;;;;10.25;74.85;101547.50;5092850;28;20043;-84
2022/04/21 08:03:09;;;;;;;8.73;5.28;;;;;;;10.23;75.57;101543.88;5091691;28;20115;-82
2022/04/21 08:05:36;;;;;;;11.35;5.57;;;;;;;10.08;76.64;101515.03;5093089;28;20489;-83
2022/04/21 08:08:03;;;;;;;8.57;5.55;;;;;;;10.22;76.74;101534.22;5091793;28;20048;-82
2022/04/21 08:10:29;;;;;;;14.07;5.07;;;;;;;10.24;76.64;101541.34;5092775;28;20035;-82
2022/04/21 08:12:58;;;;;;;9.07;5.03;;;;;;;10.34;76.06;101546.44;5092465;28;20024;-82
2022/04/21 08:15:26;;;;;;;9.93;5.35;;;;;;;10.32;74.63;101544.53;5091340;28;20056;-83
2022/04/21 08:17:54;;;;;;;7.70;5.35;;;;;;;10.23;74.84;101529.13;5090838;28;20559;-83
2022/04/21 08:20:22;;;;;;;9.75;5.72;;;;;;;10.34;76.43;101540.31;5091398;28;20028;-83
2022/04/21 08:22:48;;;;;;;9.93;5.57;;;;;;;10.28;76.27;101529.41;5092758;28;20028;-83
2022/04/21 08:33:26;;;;;;;9.75;6.30;;;;;;;10.30;76.70;101522.63;5091384;28;20030;-83
2022/04/21 08:35:57;;;;;;;10.50;6.38;;;;;;;10.37;76.67;101536.22;5090992;28;20024;-83
2022/04/21 08:38:27;;;;;;;10.43;6.20;;;;;;;10.39;76.28;101534.63;5092263;28;20077;-83
2022/04/21 08:40:58;;;;;;;9.95;6.68;;;;;;;10.37;77.08;101530.06;5090655;28;20063;-83
2022/04/21 08:43:25;;;;;;;11.27;6.07;;;;;;;10.41;77.45;101536.41;5091107;28;20024;-83
2022/04/21 08:45:51;;;;;;;10.15;6.35;;;;;;;10.19;76.53;101495.78;5092224;28;20028;-84
2022/04/21 08:48:22;;;;;;;11.30;6.07;;;;;;;10.50;75.11;101526.59;5092325;28;20494;-83
2022/04/21 08:50:48;;;;;;;10.82;6.28;;;;;;;10.48;76.38;101531.69;5092338;28;20036;-83
2022/04/21 08:53:18;;;;;;;8.13;5.85;;;;;;;10.51;76.46;101537.13;5091971;28;20035;-83
2022/04/21 08:55:44;;;;;;;8.85;6.30;;;;;;;10.39;76.80;101524.16;5091196;28;20028;-84
2022/04/21 08:58:10;;;;;;;8.07;6.05;;;;;;;10.46;77.24;101533.31;5090383;28;20028;-83
2022/04/21 09:00:36;;;;;;;11.27;6.32;;;;;;;10.48;76.97;101536.94;5090551;28;20039;-84
2022/04/21 09:03:05;;;;;;;13.45;6.80;;;;;;;10.52;76.59;101541.56;5091791;28;20032;-83
2022/04/21 09:05:31;;;;;;;11.48;6.45;;;;;;;10.62;75.37;101537.81;5090648;28;20031;-83
2022/04/21 09:07:57;;;;;;;10.13;6.30;;;;;;;10.61;75.80;101546.47;5090677;28;20031;-82
2022/04/21 09:10:25;;;;;;;9.73;6.28;;;;;;;10.54;77.04;101539.03;5090453;28;20173;-83
2022/04/21 09:12:59;;;;;;;8.23;5.68;;;;;;;10.35;77.76;101509.09;5090508;28;20024;-83
2022/04/21 09:15:36;;;;;;;9.55;6.53;;;;;;;10.47;78.22;101539.44;5073563;28;20546;-83
2022/04/21 09:18:10;;;;;;;10.20;6.07;;;;;;;10.48;78.72;101549.97;5090538;28;20040;-83
2022/04/21 09:20:36;;;;;;;9.32;6.30;;;;;;;10.45;78.66;101539.31;5090492;28;20440;-83
2022/04/21 09:23:10;;;;;;;9.98;6.13;;;;;;;10.52;78.99;101538.94;5090349;28;20020;-83
2022/04/21 09:25:47;;;;;;;9.05;5.95;;;;;;;10.43;78.63;101521.75;5091699;28;20023;-83
2022/04/21 09:28:26;;;;;;;13.13;5.82;;;;;;;10.57;78.40;101534.91;5092564;28;20024;-83
2022/04/21 09:30:57;;;;;;;9.40;5.80;;;;;;;10.66;77.88;101541.56;5094787;28;20038;-83
2022/04/21 09:33:31;;;;;;;10.48;6.20;;;;;;;10.84;75.95;101544.44;5094389;28;20489;-83
2022/04/21 09:36:00;;;;;;;8.20;5.68;;;;;;;10.73;77.01;101543.75;5094497;28;20042;-82
2022/04/21 09:38:26;;;;;;;7.22;5.80;;;;;;;10.64;77.42;101528.38;5094368;28;20063;-82
2022/04/21 09:40:52;;;;;;;7.63;5.90;;;;;;;10.48;78.14;101502.97;5094224;28;20054;-83
2022/04/21 09:43:29;;;;;;;10.82;6.07;;;;;;;10.70;77.86;101549.69;5094452;28;20508;-83
2022/04/21 09:46:16;;;;;;;8.02;6.00;;;;;;;10.73;78.13;101549.91;5094358;28;20016;-83
2022/04/21 09:48:43;;;;;;;13.35;6.15;;;;;;;10.82;77.53;101552.22;5095379;28;20032;-83
2022/04/21 09:51:16;;;;;;;7.63;5.20;;;;;;;10.82;77.21;101548.72;5093914;28;20028;-83
2022/04/21 09:53:59;;;;;;;7.88;5.45;;;;;;;10.80;77.85;101559.03;5094221;28;20431;-83
2022/04/21 09:56:35;;;;;;;8.93;5.72;;;;;;;10.84;77.25;101561.06;5094147;28;20027;-83
2022/04/21 09:59:03;;;;;;;8.40;5.70;;;;;;;10.83;76.92;101559.22;5093878;28;20543;-83
2022/04/21 10:01:29;;;;;;;8.60;5.28;;;;;;;10.89;76.98;101556.13;5093976;28;20114;-83
2022/04/21 10:03:55;;;;;;;8.95;5.60;;;;;;;10.82;77.56;101560.06;5093941;28;20108;-83
2022/04/21 10:06:22;;;;;;;;;;;;;;;10.87;77.73;101557.72;5092179;28;20035;-82
2022/04/21 10:08:51;;;;;;;8.20;5.45;;;;;;;10.70;77.21;101538.34;5101322;28;19957;-84
2022/04/21 10:11:23;;;;;;;7.10;5.43;;;;;;;10.84;77.35;101563.66;5073469;28;20776;-84
2022/04/21 10:13:53;;;;;;;9.07;5.80;;;;;;;10.79;77.18;101560.75;5073451;28;20032;-84
2022/04/21 10:16:19;;;;;;;7.50;5.40;;;;;;;10.55;76.69;101514.72;5073431;28;20025;-85
2022/04/21 10:18:47;;;;;;;7.57;5.40;;;;;;;10.75;76.95;101563.97;5083989;28;20017;-85
2022/04/21 10:21:18;;;;;;;7.93;5.50;;;;;;;10.78;77.25;101573.72;5073172;28;20570;-84
2022/04/21 10:23:44;;;;;;;8.00;5.78;;;;;;;10.83;77.26;101564.47;5074875;28;20020;-85
2022/04/21 10:26:10;;;;;;;7.82;5.63;;;;;;;10.59;76.88;101511.53;5093771;28;20370;-84
2022/04/21 10:28:42;;;;;;;8.60;5.60;;;;;;;10.93;77.55;101563.38;5074865;28;20043;-83
2022/04/21 10:31:29;;;;;;;10.77;5.63;;;;;;;10.93;77.92;101558.13;5072594;28;20025;-83
2022/04/21 10:33:56;;;;;;;8.40;5.43;;;;;;;10.79;78.05;101537.25;5074189;28;20029;-84
2022/04/21 10:36:37;;;;;;;8.93;5.40;;;;;;;10.94;78.41;101557.31;5072823;28;20036;-84
2022/04/21 10:39:23;;;;;;;10.23;5.55;;;;;;;10.94;78.54;101558.25;5072748;28;20645;-83
2022/04/21 10:42:14;;;;;;;8.38;5.28;;;;;;;10.94;78.50;101557.31;5072977;28;20036;-83
2022/04/21 10:44:44;;;;;;;9.27;5.78;;;;;;;10.97;78.75;101558.44;5072774;28;20387;-83
2022/04/21 10:47:36;;;;;;;8.32;5.57;;;;;;;10.98;78.82;101560.25;5074266;28;20090;-84
2022/04/21 10:50:04;;;;;;;8.60;5.63;;;;;;;10.97;78.61;101552.31;5073026;28;20398;-83
2022/04/21 10:57:50;;;;;;;9.43;5.30;;;;;;;10.94;78.42;101557.31;5074088;28;20035;-83
2022/04/21 11:00:30;;;;;;;7.05;5.22;;;;;;;10.97;78.18;101566.28;5105001;28;20510;-83
2022/04/21 11:03:02;;;;;;;10.15;5.93;;;;;;;10.99;78.30;101564.66;5094170;28;20024;-82
2022/04/21 11:05:33;;;;;;;7.47;5.45;;;;;;;10.94;78.48;101571.31;5094169;28;20027;-82
2022/04/21 11:08:00;;;;;;;10.05;5.32;;;;;;;11.02;78.88;101576.13;5092642;28;20024;-83
2022/04/21 11:10:38;;;;;;;7.38;5.35;;;;;;;11.02;79.51;101563.94;5092637;28;20028;-82
2022/04/21 11:13:08;;;;;;;7.95;5.40;;;;;;;10.96;79.36;101554.03;5094450;28;20088;-82
2022/04/21 11:15:53;;;;;;;11.60;6.05;;;;;;;11.05;79.84;101573.69;5092708;28;20103;-82
2022/04/21 11:18:19;;;;;;;8.25;5.20;;;;;;;11.10;80.00;101569.69;5092849;28;20073;-82
2022/04/21 11:20:49;;;;;;;7.72;5.32;;;;;;;11.10;81.17;101559.22;5094753;28;20020;-83
2022/04/21 11:23:29;;;;;;;9.77;5.90;;;;;;;11.13;81.51;101565.56;5095911;28;20030;-82
2022/04/21 11:26:04;;;;;;;8.88;5.53;;;;;;;11.12;81.38;101562.84;5094532;28;20485;-83
2022/04/21 11:28:30;;;;;;;9.93;5.50;;;;;;;11.04;82.17;101551.00;5093712;28;20474;-83
2022/04/21 11:30:57;;;;;;;11.55;5.53;;;;;;;11.07;82.17;101559.00;5093667;28;20103;-84
2022/04/21 11:33:22;;;;;;;9.40;5.50;;;;;;;11.02;82.96;101544.75;5093851;28;20066;-83
2022/04/21 11:35:48;;;;;;;12.40;5.50;;;;;;;11.10;83.21;101548.78;5092117;28;20055;-83
2022/04/21 11:38:14;;;;;;;10.73;5.45;;;;;;;11.09;83.41;101541.72;5093995;28;20039;-83
2022/04/21 11:40:40;;;;;;;9.70;5.53;;;;;;;11.24;83.02;101547.03;5094758;28;20413;-83
2022/04/21 11:43:18;;;;;;;11.20;5.65;;;;;;;11.24;83.10;101552.25;5093223;28;20032;-84
2022/04/21 11:46:07;;;;;;;9.63;5.90;;;;;;;11.18;83.35;101543.22;5092420;28;20060;-84
2022/04/21 11:48:38;;;;;;;12.48;5.85;;;;;;;11.12;83.47;101523.63;5085308;28;20044;-84
2022/04/21 11:51:04;;;;;;;10.23;5.43;;;;;;;11.27;83.31;101539.41;5074417;28;20024;-83
2022/04/21 11:53:36;;;;;;;10.20;6.13;;;;;;;10.98;83.28;101486.16;5087326;28;20028;-83
2022/04/21 11:56:06;;;;;;;10.40;5.57;;;;;;;11.36;82.84;101534.75;5091635;28;20032;-84
2022/04/21 11:58:38;;;;;;;15.25;5.70;;;;;;;11.32;83.47;101530.13;5084981;28;20044;-84
2022/04/21 12:06:47;;;;;;;13.88;6.05;;;;;;;11.44;80.46;101535.22;5092167;28;20038;-84
2022/04/21 12:09:15;;;;;;;10.18;5.65;;;;;;;11.41;80.97;101533.34;5086937;28;20115;-84
2022/04/21 12:11:42;;;;;;;11.73;5.80;;;;;;;11.43;80.69;101539.56;5074054;28;20181;-84
2022/04/21 12:14:13;;;;;;;10.65;5.40;;;;;;;11.40;80.99;101532.41;5092273;28;20020;-84
2022/04/21 12:16:48;;;;;;;10.68;5.53;;;;;;;11.34;80.22;101521.56;5091106;28;20409;-84